sensor_id;sensor_type;location;lat;lon;timestamp;P1;durP1;ratioP1;P2;durP2;ratioP2
13197;SDS011;6664;52.514;13.440;2022-10-16T00:01:37;3.33;;;2.07;;
13197;SDS011;6664;52.514;13.440;2022-10-16T00:04:04;2.00;;;1.90;;
13197;SDS011;6664;52.514;13.440;2022-10-16T00:06:31;2.27;;;2.10;;
13197;SDS011;6664;52.514;13.440;2022-10-16T00:09:01;5.03;;;2.83;;
13197;SDS011;6664;52.514;13.440;2022-10-16T00:11:30;2.63;;;2.30;;
13197;SDS011;6664;52.514;13.440;2022-10-16T00:14:00;2.60;;;2.40;;
13197;SDS011;6664;52.514;13.440;2022-10-16T00:16:31;2.20;;;2.00;;
13197;SDS011;6664;52.514;13.440;2022-10-16T00:18:58;3.03;;;2.30;;
13197;SDS011;6664;52.514;13.440;2022-10-16T00:21:27;8.43;;;2.67;;
13197;SDS011;6664;52.514;13.440;2022-10-16T00:23:59;3.13;;;2.83;;
13197;SDS011;6664;52.514;13.440;2022-10-16T00:26:29;4.30;;;3.03;;
13197;SDS011;6664;52.514;13.440;2022-10-16T00:28:58;3.17;;;2.33;;
13197;SDS011;6664;52.514;13.440;2022-10-16T00:31:25;3.20;;;2.80;;
13197;SDS011;6664;52.514;13.440;2022-10-16T00:33:52;2.10;;;1.87;;
13197;SDS011;6664;52.514;13.440;2022-10-16T00:36:23;2.00;;;1.90;;
13197;SDS011;6664;52.514;13.440;2022-10-16T00:38:52;2.47;;;1.70;;
13197;SDS011;6664;52.514;13.440;2022-10-16T00:41:22;2.00;;;1.90;;
13197;SDS011;6664;52.514;13.440;2022-10-16T00:43:51;5.70;;;2.67;;
13197;SDS011;6664;52.514;13.440;2022-10-16T00:46:24;2.70;;;2.07;;
13197;SDS011;6664;52.514;13.440;2022-10-16T00:48:56;2.30;;;2.20;;
13197;SDS011;6664;52.514;13.440;2022-10-16T00:51:30;3.50;;;2.70;;
13197;SDS011;6664;52.514;13.440;2022-10-16T00:54:08;4.40;;;2.53;;
13197;SDS011;6664;52.514;13.440;2022-10-16T00:56:37;2.70;;;2.50;;
13197;SDS011;6664;52.514;13.440;2022-10-16T00:59:06;2.80;;;2.43;;
13197;SDS011;6664;52.514;13.440;2022-10-16T01:01:41;9.10;;;2.63;;
13197;SDS011;6664;52.514;13.440;2022-10-16T01:04:10;2.83;;;2.33;;
13197;SDS011;6664;52.514;13.440;2022-10-16T01:12:45;2.40;;;2.00;;
13197;SDS011;6664;52.514;13.440;2022-10-16T01:21:08;2.23;;;1.90;;
13197;SDS011;6664;52.514;13.440;2022-10-16T01:23:48;2.37;;;2.10;;
13197;SDS011;6664;52.514;13.440;2022-10-16T01:26:35;1.70;;;1.60;;
13197;SDS011;6664;52.514;13.440;2022-10-16T01:31:47;1.97;;;1.80;;
13197;SDS011;6664;52.514;13.440;2022-10-16T01:34:21;1.90;;;1.80;;
13197;SDS011;6664;52.514;13.440;2022-10-16T01:37:05;2.03;;;1.93;;
13197;SDS011;6664;52.514;13.440;2022-10-16T01:39:38;16.10;;;2.07;;
13197;SDS011;6664;52.514;13.440;2022-10-16T01:42:13;1.23;;;1.13;;
13197;SDS011;6664;52.514;13.440;2022-10-16T01:44:44;1.63;;;1.53;;
13197;SDS011;6664;52.514;13.440;2022-10-16T01:47:14;1.50;;;1.40;;
13197;SDS011;6664;52.514;13.440;2022-10-16T01:49:45;1.70;;;1.60;;
13197;SDS011;6664;52.514;13.440;2022-10-16T01:52:14;1.50;;;1.40;;
13197;SDS011;6664;52.514;13.440;2022-10-16T01:54:50;1.40;;;1.30;;
13197;SDS011;6664;52.514;13.440;2022-10-16T01:57:21;2.70;;;1.30;;
13197;SDS011;6664;52.514;13.440;2022-10-16T01:59:52;1.20;;;1.20;;
13197;SDS011;6664;52.514;13.440;2022-10-16T02:02:22;1.67;;;1.57;;
13197;SDS011;6664;52.514;13.440;2022-10-16T02:04:57;1.50;;;1.40;;
13197;SDS011;6664;52.514;13.440;2022-10-16T02:07:30;1.20;;;1.20;;
13197;SDS011;6664;52.514;13.440;2022-10-16T02:09:57;1.20;;;1.10;;
13197;SDS011;6664;52.514;13.440;2022-10-16T02:12:28;1.47;;;1.37;;
13197;SDS011;6664;52.514;13.440;2022-10-16T02:15:01;1.53;;;1.43;;
13197;SDS011;6664;52.514;13.440;2022-10-16T02:17:29;1.70;;;1.50;;
13197;SDS011;6664;52.514;13.440;2022-10-16T02:19:58;1.67;;;1.57;;
13197;SDS011;6664;52.514;13.440;2022-10-16T02:30:14;1.60;;;1.50;;
13197;SDS011;6664;52.514;13.440;2022-10-16T02:32:47;1.60;;;1.23;;
13197;SDS011;6664;52.514;13.440;2022-10-16T02:35:16;1.30;;;1.17;;
13197;SDS011;6664;52.514;13.440;2022-10-16T02:37:46;2.30;;;1.37;;
13197;SDS011;6664;52.514;13.440;2022-10-16T02:40:15;1.03;;;1.03;;
13197;SDS011;6664;52.514;13.440;2022-10-16T02:42:51;2.37;;;1.00;;
13197;SDS011;6664;52.514;13.440;2022-10-16T02:45:19;1.60;;;1.50;;
13197;SDS011;6664;52.514;13.440;2022-10-16T02:47:46;1.40;;;1.10;;
13197;SDS011;6664;52.514;13.440;2022-10-16T02:50:13;1.57;;;1.47;;
13197;SDS011;6664;52.514;13.440;2022-10-16T02:52:41;1.33;;;1.23;;
13197;SDS011;6664;52.514;13.440;2022-10-16T02:55:08;1.20;;;1.10;;
13197;SDS011;6664;52.514;13.440;2022-10-16T02:57:37;1.27;;;1.20;;
13197;SDS011;6664;52.514;13.440;2022-10-16T03:00:07;1.60;;;1.50;;
13197;SDS011;6664;52.514;13.440;2022-10-16T03:02:35;4.10;;;1.30;;
13197;SDS011;6664;52.514;13.440;2022-10-16T03:05:07;1.20;;;1.20;;
13197;SDS011;6664;52.514;13.440;2022-10-16T03:07:35;1.40;;;1.30;;
13197;SDS011;6664;52.514;13.440;2022-10-16T03:10:02;1.47;;;1.10;;
13197;SDS011;6664;52.514;13.440;2022-10-16T03:12:29;2.00;;;1.40;;
13197;SDS011;6664;52.514;13.440;2022-10-16T03:14:56;5.40;;;1.30;;
13197;SDS011;6664;52.514;13.440;2022-10-16T03:17:24;1.20;;;1.17;;
13197;SDS011;6664;52.514;13.440;2022-10-16T03:19:51;1.00;;;1.00;;
13197;SDS011;6664;52.514;13.440;2022-10-16T03:22:18;1.10;;;1.10;;
13197;SDS011;6664;52.514;13.440;2022-10-16T03:24:45;3.13;;;1.40;;
13197;SDS011;6664;52.514;13.440;2022-10-16T03:27:15;2.63;;;1.10;;
13197;SDS011;6664;52.514;13.440;2022-10-16T03:29:42;1.43;;;1.33;;
13197;SDS011;6664;52.514;13.440;2022-10-16T03:32:09;1.00;;;1.00;;
13197;SDS011;6664;52.514;13.440;2022-10-16T03:34:35;2.20;;;1.67;;
13197;SDS011;6664;52.514;13.440;2022-10-16T03:37:03;0.93;;;0.93;;
13197;SDS011;6664;52.514;13.440;2022-10-16T03:39:30;2.40;;;1.33;;
13197;SDS011;6664;52.514;13.440;2022-10-16T03:41:57;1.53;;;1.27;;
13197;SDS011;6664;52.514;13.440;2022-10-16T03:44:29;1.53;;;1.43;;
13197;SDS011;6664;52.514;13.440;2022-10-16T03:46:56;2.93;;;1.30;;
13197;SDS011;6664;52.514;13.440;2022-10-16T03:49:25;1.40;;;1.30;;
13197;SDS011;6664;52.514;13.440;2022-10-16T03:51:52;1.23;;;1.23;;
13197;SDS011;6664;52.514;13.440;2022-10-16T03:54:19;1.60;;;1.50;;
13197;SDS011;6664;52.514;13.440;2022-10-16T03:56:46;1.33;;;1.23;;
13197;SDS011;6664;52.514;13.440;2022-10-16T03:59:13;1.20;;;1.20;;
13197;SDS011;6664;52.514;13.440;2022-10-16T04:01:40;1.23;;;1.23;;
13197;SDS011;6664;52.514;13.440;2022-10-16T04:04:09;1.10;;;1.10;;
13197;SDS011;6664;52.514;13.440;2022-10-16T04:06:36;1.20;;;1.17;;
13197;SDS011;6664;52.514;13.440;2022-10-16T04:09:03;2.80;;;1.47;;
13197;SDS011;6664;52.514;13.440;2022-10-16T04:11:30;3.93;;;1.57;;
13197;SDS011;6664;52.514;13.440;2022-10-16T04:13:57;1.30;;;1.20;;
13197;SDS011;6664;52.514;13.440;2022-10-16T04:16:24;1.37;;;1.27;;
13197;SDS011;6664;52.514;13.440;2022-10-16T04:18:54;1.90;;;1.47;;
13197;SDS011;6664;52.514;13.440;2022-10-16T04:21:21;1.60;;;1.50;;
13197;SDS011;6664;52.514;13.440;2022-10-16T04:23:48;1.20;;;1.20;;
13197;SDS011;6664;52.514;13.440;2022-10-16T04:26:15;1.60;;;1.50;;
13197;SDS011;6664;52.514;13.440;2022-10-16T04:28:42;6.00;;;1.37;;
13197;SDS011;6664;52.514;13.440;2022-10-16T04:31:10;1.60;;;1.50;;
13197;SDS011;6664;52.514;13.440;2022-10-16T04:33:37;1.40;;;1.30;;
13197;SDS011;6664;52.514;13.440;2022-10-16T04:36:06;1.50;;;1.40;;
13197;SDS011;6664;52.514;13.440;2022-10-16T04:38:36;1.40;;;1.30;;
13197;SDS011;6664;52.514;13.440;2022-10-16T04:41:03;2.00;;;1.50;;
13197;SDS011;6664;52.514;13.440;2022-10-16T04:43:33;1.40;;;1.30;;
13197;SDS011;6664;52.514;13.440;2022-10-16T04:46:00;1.60;;;1.57;;
13197;SDS011;6664;52.514;13.440;2022-10-16T04:48:31;1.50;;;1.40;;
13197;SDS011;6664;52.514;13.440;2022-10-16T04:51:00;1.23;;;1.10;;
13197;SDS011;6664;52.514;13.440;2022-10-16T04:53:27;2.10;;;1.90;;
13197;SDS011;6664;52.514;13.440;2022-10-16T04:55:54;1.70;;;1.60;;
13197;SDS011;6664;52.514;13.440;2022-10-16T04:58:22;3.10;;;1.47;;
13197;SDS011;6664;52.514;13.440;2022-10-16T05:00:52;1.50;;;1.40;;
13197;SDS011;6664;52.514;13.440;2022-10-16T05:03:19;1.77;;;1.67;;
13197;SDS011;6664;52.514;13.440;2022-10-16T05:05:46;2.23;;;1.60;;
13197;SDS011;6664;52.514;13.440;2022-10-16T05:08:13;1.60;;;1.50;;
13197;SDS011;6664;52.514;13.440;2022-10-16T05:10:42;3.23;;;2.10;;
13197;SDS011;6664;52.514;13.440;2022-10-16T05:13:15;4.07;;;2.70;;
13197;SDS011;6664;52.514;13.440;2022-10-16T05:15:46;2.00;;;1.90;;
13197;SDS011;6664;52.514;13.440;2022-10-16T05:18:18;1.87;;;1.73;;
13197;SDS011;6664;52.514;13.440;2022-10-16T05:20:45;2.07;;;1.77;;
13197;SDS011;6664;52.514;13.440;2022-10-16T05:23:12;1.47;;;1.30;;
13197;SDS011;6664;52.514;13.440;2022-10-16T05:25:51;3.33;;;1.70;;
13197;SDS011;6664;52.514;13.440;2022-10-16T05:28:19;2.20;;;2.00;;
13197;SDS011;6664;52.514;13.440;2022-10-16T05:30:49;2.33;;;1.60;;
13197;SDS011;6664;52.514;13.440;2022-10-16T05:33:16;1.50;;;1.40;;
13197;SDS011;6664;52.514;13.440;2022-10-16T05:35:43;2.03;;;1.87;;
13197;SDS011;6664;52.514;13.440;2022-10-16T05:38:10;1.97;;;1.87;;
13197;SDS011;6664;52.514;13.440;2022-10-16T05:40:37;4.50;;;2.10;;
13197;SDS011;6664;52.514;13.440;2022-10-16T05:43:04;2.00;;;1.90;;
13197;SDS011;6664;52.514;13.440;2022-10-16T05:45:30;2.20;;;1.90;;
13197;SDS011;6664;52.514;13.440;2022-10-16T05:47:57;2.00;;;1.80;;
13197;SDS011;6664;52.514;13.440;2022-10-16T05:50:27;2.93;;;1.70;;
13197;SDS011;6664;52.514;13.440;2022-10-16T05:52:54;1.67;;;1.57;;
13197;SDS011;6664;52.514;13.440;2022-10-16T05:55:23;2.30;;;2.20;;
13197;SDS011;6664;52.514;13.440;2022-10-16T05:57:50;2.73;;;2.33;;
13197;SDS011;6664;52.514;13.440;2022-10-16T06:00:20;4.50;;;2.07;;
13197;SDS011;6664;52.514;13.440;2022-10-16T06:02:46;2.03;;;1.93;;
13197;SDS011;6664;52.514;13.440;2022-10-16T06:05:13;2.27;;;1.90;;
13197;SDS011;6664;52.514;13.440;2022-10-16T06:07:40;1.60;;;1.50;;
13197;SDS011;6664;52.514;13.440;2022-10-16T06:10:07;2.17;;;2.07;;
13197;SDS011;6664;52.514;13.440;2022-10-16T06:12:37;3.07;;;2.20;;
13197;SDS011;6664;52.514;13.440;2022-10-16T06:15:04;2.10;;;2.00;;
13197;SDS011;6664;52.514;13.440;2022-10-16T06:17:31;1.90;;;1.80;;
13197;SDS011;6664;52.514;13.440;2022-10-16T06:20:00;1.93;;;1.83;;
13197;SDS011;6664;52.514;13.440;2022-10-16T06:22:27;3.57;;;2.20;;
13197;SDS011;6664;52.514;13.440;2022-10-16T06:24:54;2.83;;;1.57;;
13197;SDS011;6664;52.514;13.440;2022-10-16T06:27:23;1.70;;;1.60;;
13197;SDS011;6664;52.514;13.440;2022-10-16T06:29:51;2.00;;;1.90;;
13197;SDS011;6664;52.514;13.440;2022-10-16T06:32:18;2.53;;;2.13;;
13197;SDS011;6664;52.514;13.440;2022-10-16T06:34:45;2.13;;;1.70;;
13197;SDS011;6664;52.514;13.440;2022-10-16T06:37:14;1.40;;;1.40;;
13197;SDS011;6664;52.514;13.440;2022-10-16T06:39:40;4.00;;;1.77;;
13197;SDS011;6664;52.514;13.440;2022-10-16T06:42:09;1.80;;;1.70;;
13197;SDS011;6664;52.514;13.440;2022-10-16T06:44:36;2.10;;;1.63;;
13197;SDS011;6664;52.514;13.440;2022-10-16T06:47:03;2.10;;;1.90;;
13197;SDS011;6664;52.514;13.440;2022-10-16T06:49:30;1.60;;;1.50;;
13197;SDS011;6664;52.514;13.440;2022-10-16T06:51:57;1.67;;;1.40;;
13197;SDS011;6664;52.514;13.440;2022-10-16T06:54:27;2.30;;;1.53;;
13197;SDS011;6664;52.514;13.440;2022-10-16T06:56:54;5.30;;;1.73;;
13197;SDS011;6664;52.514;13.440;2022-10-16T06:59:21;1.33;;;1.30;;
13197;SDS011;6664;52.514;13.440;2022-10-16T07:01:48;1.80;;;1.70;;
13197;SDS011;6664;52.514;13.440;2022-10-16T07:04:15;1.47;;;1.37;;
13197;SDS011;6664;52.514;13.440;2022-10-16T07:06:42;1.53;;;1.43;;
13197;SDS011;6664;52.514;13.440;2022-10-16T07:09:09;1.63;;;1.53;;
13197;SDS011;6664;52.514;13.440;2022-10-16T07:11:37;3.23;;;1.93;;
13197;SDS011;6664;52.514;13.440;2022-10-16T07:14:18;1.47;;;1.37;;
13197;SDS011;6664;52.514;13.440;2022-10-16T07:16:48;1.70;;;1.60;;
13197;SDS011;6664;52.514;13.440;2022-10-16T07:19:15;1.67;;;1.57;;
13197;SDS011;6664;52.514;13.440;2022-10-16T07:21:43;1.77;;;1.43;;
13197;SDS011;6664;52.514;13.440;2022-10-16T07:24:12;1.60;;;1.50;;
13197;SDS011;6664;52.514;13.440;2022-10-16T07:26:40;1.60;;;1.50;;
13197;SDS011;6664;52.514;13.440;2022-10-16T07:29:15;1.20;;;1.20;;
13197;SDS011;6664;52.514;13.440;2022-10-16T07:31:46;2.00;;;1.50;;
13197;SDS011;6664;52.514;13.440;2022-10-16T07:34:14;0.97;;;0.97;;
13197;SDS011;6664;52.514;13.440;2022-10-16T07:36:50;2.57;;;1.30;;
13197;SDS011;6664;52.514;13.440;2022-10-16T07:39:17;3.00;;;1.50;;
13197;SDS011;6664;52.514;13.440;2022-10-16T07:41:46;1.30;;;1.20;;
13197;SDS011;6664;52.514;13.440;2022-10-16T07:44:15;1.30;;;1.20;;
13197;SDS011;6664;52.514;13.440;2022-10-16T07:46:42;1.77;;;1.30;;
13197;SDS011;6664;52.514;13.440;2022-10-16T07:49:08;1.40;;;1.30;;
13197;SDS011;6664;52.514;13.440;2022-10-16T07:51:38;3.60;;;1.20;;
13197;SDS011;6664;52.514;13.440;2022-10-16T07:54:07;1.40;;;1.30;;
13197;SDS011;6664;52.514;13.440;2022-10-16T07:56:35;1.37;;;1.20;;
13197;SDS011;6664;52.514;13.440;2022-10-16T07:59:08;1.40;;;1.30;;
13197;SDS011;6664;52.514;13.440;2022-10-16T08:01:34;2.40;;;1.10;;
13197;SDS011;6664;52.514;13.440;2022-10-16T08:04:01;2.00;;;0.90;;
13197;SDS011;6664;52.514;13.440;2022-10-16T08:06:37;3.50;;;1.37;;
13197;SDS011;6664;52.514;13.440;2022-10-16T08:09:05;1.43;;;1.40;;
13197;SDS011;6664;52.514;13.440;2022-10-16T08:11:33;1.33;;;1.23;;
13197;SDS011;6664;52.514;13.440;2022-10-16T08:14:00;2.63;;;1.37;;
13197;SDS011;6664;52.514;13.440;2022-10-16T08:16:27;2.63;;;1.40;;
13197;SDS011;6664;52.514;13.440;2022-10-16T08:18:54;1.00;;;1.00;;
13197;SDS011;6664;52.514;13.440;2022-10-16T08:21:21;3.93;;;1.20;;
13197;SDS011;6664;52.514;13.440;2022-10-16T08:23:52;1.10;;;1.00;;
13197;SDS011;6664;52.514;13.440;2022-10-16T08:26:23;1.30;;;1.20;;
13197;SDS011;6664;52.514;13.440;2022-10-16T08:28:51;1.20;;;1.10;;
13197;SDS011;6664;52.514;13.440;2022-10-16T08:31:19;1.17;;;1.07;;
13197;SDS011;6664;52.514;13.440;2022-10-16T08:33:46;2.70;;;1.33;;
13197;SDS011;6664;52.514;13.440;2022-10-16T08:36:14;2.00;;;1.90;;
13197;SDS011;6664;52.514;13.440;2022-10-16T08:38:42;0.90;;;0.80;;
13197;SDS011;6664;52.514;13.440;2022-10-16T08:47:07;1.47;;;1.37;;
13197;SDS011;6664;52.514;13.440;2022-10-16T08:49:39;1.90;;;1.00;;
13197;SDS011;6664;52.514;13.440;2022-10-16T08:52:21;0.97;;;0.97;;
13197;SDS011;6664;52.514;13.440;2022-10-16T08:54:53;1.60;;;1.23;;
13197;SDS011;6664;52.514;13.440;2022-10-16T08:57:25;1.10;;;1.00;;
13197;SDS011;6664;52.514;13.440;2022-10-16T08:59:53;1.17;;;1.10;;
13197;SDS011;6664;52.514;13.440;2022-10-16T09:02:28;2.03;;;1.20;;
13197;SDS011;6664;52.514;13.440;2022-10-16T09:16:41;1.20;;;1.10;;
13197;SDS011;6664;52.514;13.440;2022-10-16T09:21:44;3.13;;;1.20;;
13197;SDS011;6664;52.514;13.440;2022-10-16T09:24:14;1.10;;;1.00;;
13197;SDS011;6664;52.514;13.440;2022-10-16T09:26:43;1.17;;;1.10;;
13197;SDS011;6664;52.514;13.440;2022-10-16T09:29:16;1.40;;;1.30;;
13197;SDS011;6664;52.514;13.440;2022-10-16T09:31:46;1.00;;;1.00;;
13197;SDS011;6664;52.514;13.440;2022-10-16T09:34:35;3.17;;;1.10;;
13197;SDS011;6664;52.514;13.440;2022-10-16T09:37:08;1.33;;;1.23;;
13197;SDS011;6664;52.514;13.440;2022-10-16T09:39:47;0.90;;;0.90;;
13197;SDS011;6664;52.514;13.440;2022-10-16T09:42:21;1.20;;;1.10;;
13197;SDS011;6664;52.514;13.440;2022-10-16T09:44:53;1.10;;;0.87;;
13197;SDS011;6664;52.514;13.440;2022-10-16T09:47:21;0.73;;;0.73;;
13197;SDS011;6664;52.514;13.440;2022-10-16T09:49:55;1.10;;;1.00;;
13197;SDS011;6664;52.514;13.440;2022-10-16T09:52:31;1.13;;;1.03;;
13197;SDS011;6664;52.514;13.440;2022-10-16T09:55:12;0.80;;;0.80;;
13197;SDS011;6664;52.514;13.440;2022-10-16T09:57:49;0.87;;;0.87;;
13197;SDS011;6664;52.514;13.440;2022-10-16T10:00:20;0.93;;;0.90;;
13197;SDS011;6664;52.514;13.440;2022-10-16T10:02:48;1.70;;;1.20;;
13197;SDS011;6664;52.514;13.440;2022-10-16T10:05:22;1.30;;;1.23;;
13197;SDS011;6664;52.514;13.440;2022-10-16T10:07:56;0.70;;;0.70;;
13197;SDS011;6664;52.514;13.440;2022-10-16T10:10:26;0.90;;;0.90;;
13197;SDS011;6664;52.514;13.440;2022-10-16T10:12:57;2.10;;;0.90;;
13197;SDS011;6664;52.514;13.440;2022-10-16T10:15:27;0.90;;;0.90;;
13197;SDS011;6664;52.514;13.440;2022-10-16T10:18:02;0.93;;;0.93;;
13197;SDS011;6664;52.514;13.440;2022-10-16T10:20:35;1.50;;;0.90;;
13197;SDS011;6664;52.514;13.440;2022-10-16T10:23:22;0.93;;;0.93;;
13197;SDS011;6664;52.514;13.440;2022-10-16T10:28:50;1.23;;;1.13;;
13197;SDS011;6664;52.514;13.440;2022-10-16T10:31:38;1.20;;;0.97;;
13197;SDS011;6664;52.514;13.440;2022-10-16T10:34:30;0.77;;;0.77;;
13197;SDS011;6664;52.514;13.440;2022-10-16T10:37:16;1.03;;;0.93;;
13197;SDS011;6664;52.514;13.440;2022-10-16T10:40:22;1.47;;;0.80;;
13197;SDS011;6664;52.514;13.440;2022-10-16T10:43:01;0.80;;;0.80;;
13197;SDS011;6664;52.514;13.440;2022-10-16T10:45:52;0.70;;;0.70;;
13197;SDS011;6664;52.514;13.440;2022-10-16T10:51:02;1.27;;;1.10;;
13197;SDS011;6664;52.514;13.440;2022-10-16T11:02:00;2.23;;;1.43;;
13197;SDS011;6664;52.514;13.440;2022-10-16T11:07:24;0.70;;;0.70;;
13197;SDS011;6664;52.514;13.440;2022-10-16T11:10:01;6.43;;;0.90;;
13197;SDS011;6664;52.514;13.440;2022-10-16T11:12:38;0.80;;;0.80;;
13197;SDS011;6664;52.514;13.440;2022-10-16T11:15:23;1.03;;;0.77;;
13197;SDS011;6664;52.514;13.440;2022-10-16T11:18:11;4.37;;;0.90;;
13197;SDS011;6664;52.514;13.440;2022-10-16T11:20:47;0.80;;;0.80;;
13197;SDS011;6664;52.514;13.440;2022-10-16T11:23:22;0.70;;;0.70;;
13197;SDS011;6664;52.514;13.440;2022-10-16T11:25:56;0.77;;;0.77;;
13197;SDS011;6664;52.514;13.440;2022-10-16T11:28:37;1.03;;;0.80;;
13197;SDS011;6664;52.514;13.440;2022-10-16T11:31:10;1.17;;;0.80;;
13197;SDS011;6664;52.514;13.440;2022-10-16T11:36:38;0.67;;;0.67;;
13197;SDS011;6664;52.514;13.440;2022-10-16T11:39:20;0.80;;;0.80;;
13197;SDS011;6664;52.514;13.440;2022-10-16T11:44:19;0.97;;;0.80;;
13197;SDS011;6664;52.514;13.440;2022-10-16T11:50:04;1.00;;;0.90;;
13197;SDS011;6664;52.514;13.440;2022-10-16T11:55:41;1.63;;;0.90;;
13197;SDS011;6664;52.514;13.440;2022-10-16T12:01:24;0.67;;;0.60;;
13197;SDS011;6664;52.514;13.440;2022-10-16T12:06:55;0.60;;;0.60;;
13197;SDS011;6664;52.514;13.440;2022-10-16T12:09:25;1.20;;;0.80;;
13197;SDS011;6664;52.514;13.440;2022-10-16T12:11:57;1.03;;;0.77;;
13197;SDS011;6664;52.514;13.440;2022-10-16T12:17:27;0.80;;;0.80;;
13197;SDS011;6664;52.514;13.440;2022-10-16T12:22:41;1.57;;;0.80;;
13197;SDS011;6664;52.514;13.440;2022-10-16T12:30:28;0.63;;;0.63;;
13197;SDS011;6664;52.514;13.440;2022-10-16T12:33:05;3.17;;;0.80;;
13197;SDS011;6664;52.514;13.440;2022-10-16T12:35:45;1.63;;;0.80;;
13197;SDS011;6664;52.514;13.440;2022-10-16T12:43:36;0.60;;;0.60;;
13197;SDS011;6664;52.514;13.440;2022-10-16T12:48:42;10.90;;;1.03;;
13197;SDS011;6664;52.514;13.440;2022-10-16T12:51:36;1.27;;;0.80;;
13197;SDS011;6664;52.514;13.440;2022-10-16T12:54:49;0.60;;;0.60;;
13197;SDS011;6664;52.514;13.440;2022-10-16T13:05:54;5.00;;;0.83;;
13197;SDS011;6664;52.514;13.440;2022-10-16T13:19:45;1.20;;;1.10;;
13197;SDS011;6664;52.514;13.440;2022-10-16T13:22:45;0.60;;;0.60;;
13197;SDS011;6664;52.514;13.440;2022-10-16T13:28:30;0.63;;;0.63;;
13197;SDS011;6664;52.514;13.440;2022-10-16T13:31:01;0.80;;;0.60;;
13197;SDS011;6664;52.514;13.440;2022-10-16T13:33:39;0.70;;;0.70;;
13197;SDS011;6664;52.514;13.440;2022-10-16T13:36:22;0.90;;;0.90;;
13197;SDS011;6664;52.514;13.440;2022-10-16T13:44:47;1.10;;;1.00;;
13197;SDS011;6664;52.514;13.440;2022-10-16T13:47:18;0.83;;;0.70;;
13197;SDS011;6664;52.514;13.440;2022-10-16T13:50:05;1.80;;;0.83;;
13197;SDS011;6664;52.514;13.440;2022-10-16T13:52:38;0.70;;;0.70;;
13197;SDS011;6664;52.514;13.440;2022-10-16T13:57:42;1.17;;;0.80;;
13197;SDS011;6664;52.514;13.440;2022-10-16T14:00:19;0.70;;;0.70;;
13197;SDS011;6664;52.514;13.440;2022-10-16T14:03:01;0.87;;;0.87;;
13197;SDS011;6664;52.514;13.440;2022-10-16T14:05:30;2.20;;;0.63;;
13197;SDS011;6664;52.514;13.440;2022-10-16T14:07:58;0.70;;;0.70;;
13197;SDS011;6664;52.514;13.440;2022-10-16T14:10:29;0.73;;;0.60;;
13197;SDS011;6664;52.514;13.440;2022-10-16T14:12:59;3.40;;;0.90;;
13197;SDS011;6664;52.514;13.440;2022-10-16T14:15:29;2.17;;;0.80;;
13197;SDS011;6664;52.514;13.440;2022-10-16T14:18:00;0.60;;;0.60;;
13197;SDS011;6664;52.514;13.440;2022-10-16T14:20:29;2.83;;;0.80;;
13197;SDS011;6664;52.514;13.440;2022-10-16T14:22:59;0.60;;;0.60;;
13197;SDS011;6664;52.514;13.440;2022-10-16T14:25:32;0.73;;;0.73;;
13197;SDS011;6664;52.514;13.440;2022-10-16T14:30:35;1.20;;;0.70;;
13197;SDS011;6664;52.514;13.440;2022-10-16T14:33:03;3.83;;;0.90;;
13197;SDS011;6664;52.514;13.440;2022-10-16T14:35:38;0.70;;;0.70;;
13197;SDS011;6664;52.514;13.440;2022-10-16T14:38:06;0.70;;;0.70;;
13197;SDS011;6664;52.514;13.440;2022-10-16T14:40:47;1.33;;;1.33;;
13197;SDS011;6664;52.514;13.440;2022-10-16T14:43:22;1.60;;;0.80;;
13197;SDS011;6664;52.514;13.440;2022-10-16T14:46:02;2.73;;;0.90;;
13197;SDS011;6664;52.514;13.440;2022-10-16T14:48:32;0.77;;;0.77;;
13197;SDS011;6664;52.514;13.440;2022-10-16T14:51:02;1.50;;;0.70;;
13197;SDS011;6664;52.514;13.440;2022-10-16T14:53:34;0.70;;;0.70;;
13197;SDS011;6664;52.514;13.440;2022-10-16T14:56:05;1.27;;;0.93;;
13197;SDS011;6664;52.514;13.440;2022-10-16T14:58:42;0.93;;;0.83;;
13197;SDS011;6664;52.514;13.440;2022-10-16T15:01:10;1.43;;;0.80;;
13197;SDS011;6664;52.514;13.440;2022-10-16T15:03:38;1.10;;;1.00;;
13197;SDS011;6664;52.514;13.440;2022-10-16T15:06:09;0.90;;;0.73;;
13197;SDS011;6664;52.514;13.440;2022-10-16T15:08:38;2.13;;;0.90;;
13197;SDS011;6664;52.514;13.440;2022-10-16T15:11:18;0.83;;;0.83;;
13197;SDS011;6664;52.514;13.440;2022-10-16T15:13:45;0.70;;;0.70;;
13197;SDS011;6664;52.514;13.440;2022-10-16T15:16:15;2.90;;;1.10;;
13197;SDS011;6664;52.514;13.440;2022-10-16T15:18:45;0.70;;;0.70;;
13197;SDS011;6664;52.514;13.440;2022-10-16T15:21:21;0.70;;;0.70;;
13197;SDS011;6664;52.514;13.440;2022-10-16T15:23:57;1.47;;;0.90;;
13197;SDS011;6664;52.514;13.440;2022-10-16T15:26:28;2.13;;;0.90;;
13197;SDS011;6664;52.514;13.440;2022-10-16T15:28:56;1.10;;;0.87;;
13197;SDS011;6664;52.514;13.440;2022-10-16T15:31:24;0.70;;;0.70;;
13197;SDS011;6664;52.514;13.440;2022-10-16T15:33:53;1.43;;;0.87;;
13197;SDS011;6664;52.514;13.440;2022-10-16T15:36:27;0.83;;;0.83;;
13197;SDS011;6664;52.514;13.440;2022-10-16T15:38:55;1.00;;;0.90;;
13197;SDS011;6664;52.514;13.440;2022-10-16T15:41:22;1.00;;;1.00;;
13197;SDS011;6664;52.514;13.440;2022-10-16T15:43:52;1.00;;;0.90;;
13197;SDS011;6664;52.514;13.440;2022-10-16T15:46:22;0.90;;;0.90;;
13197;SDS011;6664;52.514;13.440;2022-10-16T15:48:50;6.53;;;0.97;;
13197;SDS011;6664;52.514;13.440;2022-10-16T15:51:21;1.00;;;1.00;;
13197;SDS011;6664;52.514;13.440;2022-10-16T15:53:48;0.90;;;0.90;;
13197;SDS011;6664;52.514;13.440;2022-10-16T15:56:17;0.93;;;0.83;;
13197;SDS011;6664;52.514;13.440;2022-10-16T15:58:43;1.33;;;1.00;;
13197;SDS011;6664;52.514;13.440;2022-10-16T16:01:11;5.40;;;1.57;;
13197;SDS011;6664;52.514;13.440;2022-10-16T16:03:38;1.17;;;1.07;;
13197;SDS011;6664;52.514;13.440;2022-10-16T16:06:09;1.23;;;1.00;;
13197;SDS011;6664;52.514;13.440;2022-10-16T16:08:38;1.13;;;0.90;;
13197;SDS011;6664;52.514;13.440;2022-10-16T16:11:06;0.90;;;0.80;;
13197;SDS011;6664;52.514;13.440;2022-10-16T16:13:35;0.87;;;0.87;;
13197;SDS011;6664;52.514;13.440;2022-10-16T16:16:11;0.90;;;0.90;;
13197;SDS011;6664;52.514;13.440;2022-10-16T16:18:39;1.00;;;0.90;;
13197;SDS011;6664;52.514;13.440;2022-10-16T16:21:10;2.70;;;1.57;;
13197;SDS011;6664;52.514;13.440;2022-10-16T16:23:40;0.90;;;0.90;;
13197;SDS011;6664;52.514;13.440;2022-10-16T16:26:29;2.13;;;1.13;;
13197;SDS011;6664;52.514;13.440;2022-10-16T16:29:03;1.33;;;1.00;;
13197;SDS011;6664;52.514;13.440;2022-10-16T16:31:35;2.53;;;1.27;;
13197;SDS011;6664;52.514;13.440;2022-10-16T16:34:04;1.30;;;1.13;;
13197;SDS011;6664;52.514;13.440;2022-10-16T16:36:37;1.47;;;0.90;;
13197;SDS011;6664;52.514;13.440;2022-10-16T16:39:07;1.90;;;1.10;;
13197;SDS011;6664;52.514;13.440;2022-10-16T16:41:37;1.00;;;1.00;;
13197;SDS011;6664;52.514;13.440;2022-10-16T16:47:02;1.50;;;1.20;;
13197;SDS011;6664;52.514;13.440;2022-10-16T16:49:30;2.47;;;1.37;;
13197;SDS011;6664;52.514;13.440;2022-10-16T16:51:57;2.10;;;1.33;;
13197;SDS011;6664;52.514;13.440;2022-10-16T16:54:24;1.10;;;1.00;;
13197;SDS011;6664;52.514;13.440;2022-10-16T16:56:53;4.30;;;1.30;;
13197;SDS011;6664;52.514;13.440;2022-10-16T16:59:21;1.83;;;1.43;;
13197;SDS011;6664;52.514;13.440;2022-10-16T17:01:48;4.30;;;1.53;;
13197;SDS011;6664;52.514;13.440;2022-10-16T17:04:22;2.90;;;1.40;;
13197;SDS011;6664;52.514;13.440;2022-10-16T17:06:49;2.90;;;1.50;;
13197;SDS011;6664;52.514;13.440;2022-10-16T17:09:16;1.53;;;1.43;;
13197;SDS011;6664;52.514;13.440;2022-10-16T17:11:43;3.13;;;1.20;;
13197;SDS011;6664;52.514;13.440;2022-10-16T17:14:17;3.70;;;1.07;;
13197;SDS011;6664;52.514;13.440;2022-10-16T17:16:46;1.90;;;1.30;;
13197;SDS011;6664;52.514;13.440;2022-10-16T17:19:50;2.03;;;1.50;;
13197;SDS011;6664;52.514;13.440;2022-10-16T17:22:21;2.80;;;1.23;;
13197;SDS011;6664;52.514;13.440;2022-10-16T17:24:55;1.37;;;1.27;;